sensor_id;sensor_type;location;lat;lon;timestamp;P1;durP1;ratioP1;P2;durP2;ratioP2
82938;SDS011;72714;52.744;4.900;2023-10-31T00:01:01;7.07;;;1.50;;
82938;SDS011;72714;52.744;4.900;2023-10-31T00:03:27;7.30;;;1.70;;
82938;SDS011;72714;52.744;4.900;2023-10-31T00:05:52;7.10;;;1.80;;
82938;SDS011;72714;52.744;4.900;2023-10-31T00:08:17;6.60;;;1.57;;
82938;SDS011;72714;52.744;4.900;2023-10-31T00:10:43;6.40;;;1.50;;
82938;SDS011;72714;52.744;4.900;2023-10-31T00:13:10;6.32;;;1.45;;
82938;SDS011;72714;52.744;4.900;2023-10-31T00:15:36;8.82;;;1.60;;
82938;SDS011;72714;52.744;4.900;2023-10-31T00:18:02;5.37;;;1.30;;
82938;SDS011;72714;52.744;4.900;2023-10-31T00:20:27;8.67;;;1.90;;
82938;SDS011;72714;52.744;4.900;2023-10-31T00:22:53;9.38;;;1.83;;
82938;SDS011;72714;52.744;4.900;2023-10-31T00:25:18;9.87;;;1.50;;
82938;SDS011;72714;52.744;4.900;2023-10-31T00:27:44;6.72;;;1.58;;
82938;SDS011;72714;52.744;4.900;2023-10-31T00:30:10;7.22;;;1.80;;
82938;SDS011;72714;52.744;4.900;2023-10-31T00:32:35;8.73;;;1.90;;
82938;SDS011;72714;52.744;4.900;2023-10-31T00:35:01;8.33;;;1.93;;
82938;SDS011;72714;52.744;4.900;2023-10-31T00:37:27;6.97;;;1.70;;
82938;SDS011;72714;52.744;4.900;2023-10-31T00:39:53;7.10;;;1.60;;
82938;SDS011;72714;52.744;4.900;2023-10-31T00:42:18;6.83;;;1.70;;
82938;SDS011;72714;52.744;4.900;2023-10-31T00:44:43;9.07;;;1.87;;
82938;SDS011;72714;52.744;4.900;2023-10-31T00:47:09;9.10;;;2.17;;
82938;SDS011;72714;52.744;4.900;2023-10-31T00:49:35;7.72;;;2.00;;
82938;SDS011;72714;52.744;4.900;2023-10-31T00:52:03;7.65;;;1.83;;
82938;SDS011;72714;52.744;4.900;2023-10-31T00:54:29;7.00;;;1.90;;
82938;SDS011;72714;52.744;4.900;2023-10-31T00:56:54;7.10;;;1.80;;
82938;SDS011;72714;52.744;4.900;2023-10-31T00:59:20;6.33;;;1.80;;
82938;SDS011;72714;52.744;4.900;2023-10-31T01:01:45;6.97;;;1.80;;
82938;SDS011;72714;52.744;4.900;2023-10-31T01:04:11;7.27;;;1.80;;
82938;SDS011;72714;52.744;4.900;2023-10-31T01:06:42;8.00;;;1.70;;
82938;SDS011;72714;52.744;4.900;2023-10-31T01:09:11;8.45;;;1.50;;
82938;SDS011;72714;52.744;4.900;2023-10-31T01:11:38;6.60;;;1.42;;
82938;SDS011;72714;52.744;4.900;2023-10-31T01:14:04;5.75;;;1.35;;
82938;SDS011;72714;52.744;4.900;2023-10-31T01:16:29;9.02;;;1.80;;
82938;SDS011;72714;52.744;4.900;2023-10-31T01:18:55;7.30;;;1.52;;
82938;SDS011;72714;52.744;4.900;2023-10-31T01:21:20;7.77;;;1.47;;
82938;SDS011;72714;52.744;4.900;2023-10-31T01:23:46;7.20;;;1.63;;
82938;SDS011;72714;52.744;4.900;2023-10-31T01:26:11;7.88;;;1.70;;
82938;SDS011;72714;52.744;4.900;2023-10-31T01:28:36;7.70;;;1.50;;
82938;SDS011;72714;52.744;4.900;2023-10-31T01:31:02;9.03;;;1.60;;
82938;SDS011;72714;52.744;4.900;2023-10-31T01:33:28;8.40;;;1.60;;
82938;SDS011;72714;52.744;4.900;2023-10-31T01:35:54;9.52;;;2.00;;
82938;SDS011;72714;52.744;4.900;2023-10-31T01:38:20;7.30;;;1.60;;
82938;SDS011;72714;52.744;4.900;2023-10-31T01:40:48;9.93;;;1.80;;
82938;SDS011;72714;52.744;4.900;2023-10-31T01:43:28;8.10;;;1.60;;
82938;SDS011;72714;52.744;4.900;2023-10-31T01:45:57;7.18;;;1.60;;
82938;SDS011;72714;52.744;4.900;2023-10-31T01:48:23;9.18;;;1.80;;
82938;SDS011;72714;52.744;4.900;2023-10-31T01:50:51;7.90;;;1.50;;
82938;SDS011;72714;52.744;4.900;2023-10-31T01:53:16;6.95;;;1.45;;
82938;SDS011;72714;52.744;4.900;2023-10-31T01:55:42;6.03;;;1.50;;
82938;SDS011;72714;52.744;4.900;2023-10-31T01:58:08;6.83;;;1.50;;
82938;SDS011;72714;52.744;4.900;2023-10-31T02:00:34;7.73;;;1.50;;
82938;SDS011;72714;52.744;4.900;2023-10-31T02:03:00;9.20;;;1.70;;
82938;SDS011;72714;52.744;4.900;2023-10-31T02:05:27;8.02;;;1.60;;
82938;SDS011;72714;52.744;4.900;2023-10-31T02:07:53;7.35;;;1.60;;
82938;SDS011;72714;52.744;4.900;2023-10-31T02:10:19;7.43;;;1.60;;
82938;SDS011;72714;52.744;4.900;2023-10-31T02:12:44;6.90;;;1.50;;
82938;SDS011;72714;52.744;4.900;2023-10-31T02:15:10;8.47;;;1.60;;
82938;SDS011;72714;52.744;4.900;2023-10-31T02:17:36;7.43;;;1.55;;
82938;SDS011;72714;52.744;4.900;2023-10-31T02:20:02;8.07;;;1.73;;
82938;SDS011;72714;52.744;4.900;2023-10-31T02:22:27;7.30;;;1.48;;
82938;SDS011;72714;52.744;4.900;2023-10-31T02:24:53;9.27;;;1.60;;
82938;SDS011;72714;52.744;4.900;2023-10-31T02:27:18;7.23;;;1.40;;
82938;SDS011;72714;52.744;4.900;2023-10-31T02:29:44;4.70;;;1.13;;
82938;SDS011;72714;52.744;4.900;2023-10-31T02:32:10;7.50;;;1.20;;
82938;SDS011;72714;52.744;4.900;2023-10-31T02:34:35;6.00;;;1.10;;
82938;SDS011;72714;52.744;4.900;2023-10-31T02:37:01;5.63;;;1.23;;
82938;SDS011;72714;52.744;4.900;2023-10-31T02:39:26;7.23;;;1.10;;
82938;SDS011;72714;52.744;4.900;2023-10-31T02:41:52;5.10;;;1.00;;
82938;SDS011;72714;52.744;4.900;2023-10-31T02:44:17;5.27;;;1.10;;
82938;SDS011;72714;52.744;4.900;2023-10-31T02:46:43;6.60;;;1.00;;
82938;SDS011;72714;52.744;4.900;2023-10-31T02:49:08;4.05;;;0.90;;
82938;SDS011;72714;52.744;4.900;2023-10-31T02:51:35;4.43;;;1.00;;
82938;SDS011;72714;52.744;4.900;2023-10-31T02:54:00;4.10;;;0.90;;
82938;SDS011;72714;52.744;4.900;2023-10-31T02:56:26;5.00;;;0.70;;
82938;SDS011;72714;52.744;4.900;2023-10-31T02:58:51;4.18;;;0.88;;
82938;SDS011;72714;52.744;4.900;2023-10-31T03:01:17;5.03;;;1.00;;
82938;SDS011;72714;52.744;4.900;2023-10-31T03:03:45;4.23;;;0.90;;
82938;SDS011;72714;52.744;4.900;2023-10-31T03:06:10;4.23;;;1.13;;
82938;SDS011;72714;52.744;4.900;2023-10-31T03:08:36;3.78;;;0.88;;
82938;SDS011;72714;52.744;4.900;2023-10-31T03:11:01;4.65;;;1.05;;
82938;SDS011;72714;52.744;4.900;2023-10-31T03:13:27;3.97;;;0.90;;
82938;SDS011;72714;52.744;4.900;2023-10-31T03:15:52;3.93;;;0.90;;
82938;SDS011;72714;52.744;4.900;2023-10-31T03:18:19;3.03;;;0.75;;
82938;SDS011;72714;52.744;4.900;2023-10-31T03:20:44;4.97;;;0.80;;
82938;SDS011;72714;52.744;4.900;2023-10-31T03:23:11;4.88;;;1.10;;
82938;SDS011;72714;52.744;4.900;2023-10-31T03:25:37;4.37;;;1.00;;
82938;SDS011;72714;52.744;4.900;2023-10-31T03:28:03;5.40;;;1.00;;
82938;SDS011;72714;52.744;4.900;2023-10-31T03:30:28;5.10;;;0.90;;
82938;SDS011;72714;52.744;4.900;2023-10-31T03:32:54;5.67;;;1.30;;
82938;SDS011;72714;52.744;4.900;2023-10-31T03:35:19;4.10;;;0.93;;
82938;SDS011;72714;52.744;4.900;2023-10-31T03:37:45;4.33;;;1.00;;
82938;SDS011;72714;52.744;4.900;2023-10-31T03:40:10;5.93;;;1.17;;
82938;SDS011;72714;52.744;4.900;2023-10-31T03:42:36;5.05;;;1.00;;
82938;SDS011;72714;52.744;4.900;2023-10-31T03:45:02;4.33;;;0.97;;
82938;SDS011;72714;52.744;4.900;2023-10-31T03:47:28;6.60;;;1.00;;
82938;SDS011;72714;52.744;4.900;2023-10-31T03:49:54;4.28;;;1.00;;
82938;SDS011;72714;52.744;4.900;2023-10-31T03:52:20;5.80;;;1.20;;
82938;SDS011;72714;52.744;4.900;2023-10-31T03:54:45;5.13;;;1.00;;
82938;SDS011;72714;52.744;4.900;2023-10-31T03:57:11;4.17;;;1.10;;
82938;SDS011;72714;52.744;4.900;2023-10-31T03:59:37;5.20;;;1.10;;
82938;SDS011;72714;52.744;4.900;2023-10-31T04:02:04;7.72;;;1.23;;
82938;SDS011;72714;52.744;4.900;2023-10-31T04:04:30;7.67;;;1.20;;
82938;SDS011;72714;52.744;4.900;2023-10-31T04:06:55;5.10;;;0.80;;
82938;SDS011;72714;52.744;4.900;2023-10-31T04:09:20;6.72;;;1.20;;
82938;SDS011;72714;52.744;4.900;2023-10-31T04:11:46;6.40;;;1.07;;
82938;SDS011;72714;52.744;4.900;2023-10-31T04:14:12;4.97;;;1.00;;
82938;SDS011;72714;52.744;4.900;2023-10-31T04:16:40;7.40;;;1.00;;
82938;SDS011;72714;52.744;4.900;2023-10-31T04:19:11;5.93;;;0.90;;
82938;SDS011;72714;52.744;4.900;2023-10-31T04:21:37;4.95;;;0.90;;
82938;SDS011;72714;52.744;4.900;2023-10-31T04:24:03;4.70;;;0.80;;
82938;SDS011;72714;52.744;4.900;2023-10-31T04:26:29;5.87;;;1.10;;
82938;SDS011;72714;52.744;4.900;2023-10-31T04:28:54;3.87;;;1.00;;
82938;SDS011;72714;52.744;4.900;2023-10-31T04:31:20;3.20;;;0.70;;
82938;SDS011;72714;52.744;4.900;2023-10-31T04:33:45;4.73;;;0.90;;
82938;SDS011;72714;52.744;4.900;2023-10-31T04:36:11;5.70;;;0.90;;
82938;SDS011;72714;52.744;4.900;2023-10-31T04:38:36;4.47;;;0.90;;
82938;SDS011;72714;52.744;4.900;2023-10-31T04:41:03;2.83;;;0.70;;
82938;SDS011;72714;52.744;4.900;2023-10-31T04:43:29;5.00;;;1.10;;
82938;SDS011;72714;52.744;4.900;2023-10-31T04:45:54;3.83;;;0.80;;
82938;SDS011;72714;52.744;4.900;2023-10-31T04:48:19;4.10;;;0.88;;
82938;SDS011;72714;52.744;4.900;2023-10-31T04:50:45;5.80;;;0.93;;
82938;SDS011;72714;52.744;4.900;2023-10-31T04:53:11;4.10;;;0.87;;
82938;SDS011;72714;52.744;4.900;2023-10-31T04:55:36;4.67;;;1.03;;
82938;SDS011;72714;52.744;4.900;2023-10-31T04:58:01;6.32;;;1.20;;
82938;SDS011;72714;52.744;4.900;2023-10-31T05:00:27;5.57;;;0.90;;
82938;SDS011;72714;52.744;4.900;2023-10-31T05:02:52;4.13;;;0.97;;
82938;SDS011;72714;52.744;4.900;2023-10-31T05:05:18;5.40;;;1.00;;
82938;SDS011;72714;52.744;4.900;2023-10-31T05:07:44;4.60;;;0.90;;
82938;SDS011;72714;52.744;4.900;2023-10-31T05:10:10;3.77;;;0.83;;
82938;SDS011;72714;52.744;4.900;2023-10-31T05:12:35;4.78;;;0.90;;
82938;SDS011;72714;52.744;4.900;2023-10-31T05:15:02;5.32;;;1.20;;
82938;SDS011;72714;52.744;4.900;2023-10-31T05:17:27;4.20;;;0.98;;
82938;SDS011;72714;52.744;4.900;2023-10-31T05:19:53;4.20;;;0.90;;
82938;SDS011;72714;52.744;4.900;2023-10-31T05:22:18;4.33;;;1.00;;
82938;SDS011;72714;52.744;4.900;2023-10-31T05:24:44;4.77;;;1.10;;
82938;SDS011;72714;52.744;4.900;2023-10-31T05:27:09;3.67;;;1.05;;
82938;SDS011;72714;52.744;4.900;2023-10-31T05:29:35;3.78;;;1.10;;
82938;SDS011;72714;52.744;4.900;2023-10-31T05:32:02;3.15;;;0.90;;
82938;SDS011;72714;52.744;4.900;2023-10-31T05:34:28;2.67;;;0.90;;
82938;SDS011;72714;52.744;4.900;2023-10-31T05:36:54;3.33;;;0.90;;
82938;SDS011;72714;52.744;4.900;2023-10-31T05:39:19;4.07;;;1.15;;
82938;SDS011;72714;52.744;4.900;2023-10-31T05:41:45;2.87;;;0.90;;
82938;SDS011;72714;52.744;4.900;2023-10-31T05:44:10;3.30;;;1.00;;
82938;SDS011;72714;52.744;4.900;2023-10-31T05:46:39;2.47;;;1.00;;
82938;SDS011;72714;52.744;4.900;2023-10-31T05:49:08;4.38;;;1.00;;
82938;SDS011;72714;52.744;4.900;2023-10-31T05:51:33;4.07;;;1.10;;
82938;SDS011;72714;52.744;4.900;2023-10-31T05:54:00;4.03;;;1.00;;
82938;SDS011;72714;52.744;4.900;2023-10-31T05:56:25;3.83;;;0.90;;
82938;SDS011;72714;52.744;4.900;2023-10-31T05:58:51;6.20;;;1.13;;
82938;SDS011;72714;52.744;4.900;2023-10-31T06:01:16;4.25;;;1.00;;
82938;SDS011;72714;52.744;4.900;2023-10-31T06:03:43;5.03;;;1.00;;
82938;SDS011;72714;52.744;4.900;2023-10-31T06:06:09;4.80;;;0.90;;
82938;SDS011;72714;52.744;4.900;2023-10-31T06:08:36;3.75;;;1.00;;
82938;SDS011;72714;52.744;4.900;2023-10-31T06:11:02;3.30;;;1.00;;
82938;SDS011;72714;52.744;4.900;2023-10-31T06:13:28;4.50;;;1.40;;
82938;SDS011;72714;52.744;4.900;2023-10-31T06:15:54;4.75;;;1.00;;
82938;SDS011;72714;52.744;4.900;2023-10-31T06:18:20;4.15;;;1.00;;
82938;SDS011;72714;52.744;4.900;2023-10-31T06:20:46;3.67;;;0.97;;
82938;SDS011;72714;52.744;4.900;2023-10-31T06:23:12;3.92;;;0.98;;
82938;SDS011;72714;52.744;4.900;2023-10-31T06:25:37;5.00;;;1.40;;
82938;SDS011;72714;52.744;4.900;2023-10-31T06:28:03;6.75;;;2.70;;
82938;SDS011;72714;52.744;4.900;2023-10-31T06:30:29;6.90;;;3.00;;
82938;SDS011;72714;52.744;4.900;2023-10-31T06:32:54;4.77;;;1.50;;
82938;SDS011;72714;52.744;4.900;2023-10-31T06:35:20;8.07;;;3.47;;
82938;SDS011;72714;52.744;4.900;2023-10-31T06:37:45;10.43;;;4.57;;
82938;SDS011;72714;52.744;4.900;2023-10-31T06:40:11;5.57;;;1.90;;
82938;SDS011;72714;52.744;4.900;2023-10-31T06:42:36;4.00;;;1.20;;
82938;SDS011;72714;52.744;4.900;2023-10-31T06:45:02;4.57;;;1.00;;
82938;SDS011;72714;52.744;4.900;2023-10-31T06:47:28;4.83;;;1.10;;
82938;SDS011;72714;52.744;4.900;2023-10-31T06:49:55;4.78;;;1.00;;
82938;SDS011;72714;52.744;4.900;2023-10-31T06:52:20;3.38;;;0.90;;
82938;SDS011;72714;52.744;4.900;2023-10-31T06:54:46;4.83;;;1.60;;
82938;SDS011;72714;52.744;4.900;2023-10-31T06:57:11;7.03;;;2.70;;
82938;SDS011;72714;52.744;4.900;2023-10-31T06:59:37;7.32;;;3.17;;
82938;SDS011;72714;52.744;4.900;2023-10-31T07:02:02;5.33;;;1.80;;
82938;SDS011;72714;52.744;4.900;2023-10-31T07:04:27;5.07;;;1.00;;
82938;SDS011;72714;52.744;4.900;2023-10-31T07:06:53;4.40;;;1.00;;
82938;SDS011;72714;52.744;4.900;2023-10-31T07:09:22;5.30;;;0.95;;
82938;SDS011;72714;52.744;4.900;2023-10-31T07:11:49;3.70;;;0.80;;
82938;SDS011;72714;52.744;4.900;2023-10-31T07:14:14;4.50;;;1.00;;
82938;SDS011;72714;52.744;4.900;2023-10-31T07:16:40;4.00;;;0.90;;
82938;SDS011;72714;52.744;4.900;2023-10-31T07:19:05;3.85;;;1.00;;
82938;SDS011;72714;52.744;4.900;2023-10-31T07:21:30;3.93;;;1.00;;
82938;SDS011;72714;52.744;4.900;2023-10-31T07:23:56;4.50;;;1.00;;
82938;SDS011;72714;52.744;4.900;2023-10-31T07:26:22;4.15;;;1.10;;
82938;SDS011;72714;52.744;4.900;2023-10-31T07:28:47;3.45;;;0.88;;
82938;SDS011;72714;52.744;4.900;2023-10-31T07:31:13;3.67;;;0.90;;
82938;SDS011;72714;52.744;4.900;2023-10-31T07:33:39;5.68;;;1.00;;
82938;SDS011;72714;52.744;4.900;2023-10-31T07:36:05;3.83;;;0.80;;
82938;SDS011;72714;52.744;4.900;2023-10-31T07:38:30;3.63;;;0.80;;
82938;SDS011;72714;52.744;4.900;2023-10-31T07:40:56;4.03;;;0.80;;
82938;SDS011;72714;52.744;4.900;2023-10-31T07:43:21;3.37;;;0.90;;
82938;SDS011;72714;52.744;4.900;2023-10-31T07:45:47;4.15;;;0.95;;
82938;SDS011;72714;52.744;4.900;2023-10-31T07:48:12;4.23;;;1.10;;
82938;SDS011;72714;52.744;4.900;2023-10-31T07:50:38;6.47;;;1.50;;
82938;SDS011;72714;52.744;4.900;2023-10-31T07:53:03;5.30;;;1.38;;
82938;SDS011;72714;52.744;4.900;2023-10-31T07:55:29;4.23;;;1.30;;
82938;SDS011;72714;52.744;4.900;2023-10-31T07:57:54;4.53;;;1.10;;
82938;SDS011;72714;52.744;4.900;2023-10-31T08:00:20;5.03;;;1.20;;
82938;SDS011;72714;52.744;4.900;2023-10-31T08:02:46;4.85;;;1.20;;
82938;SDS011;72714;52.744;4.900;2023-10-31T08:05:12;4.63;;;1.00;;
82938;SDS011;72714;52.744;4.900;2023-10-31T08:07:37;5.47;;;1.10;;
82938;SDS011;72714;52.744;4.900;2023-10-31T08:10:03;2.80;;;1.00;;
82938;SDS011;72714;52.744;4.900;2023-10-31T08:12:32;5.22;;;1.33;;
82938;SDS011;72714;52.744;4.900;2023-10-31T08:14:57;3.00;;;0.80;;
82938;SDS011;72714;52.744;4.900;2023-10-31T08:17:23;5.97;;;1.40;;
82938;SDS011;72714;52.744;4.900;2023-10-31T08:19:49;5.50;;;1.35;;
82938;SDS011;72714;52.744;4.900;2023-10-31T08:22:15;4.15;;;1.00;;
82938;SDS011;72714;52.744;4.900;2023-10-31T08:24:41;3.92;;;0.90;;
82938;SDS011;72714;52.744;4.900;2023-10-31T08:27:07;3.47;;;0.80;;
82938;SDS011;72714;52.744;4.900;2023-10-31T08:29:32;4.25;;;0.90;;
82938;SDS011;72714;52.744;4.900;2023-10-31T08:31:58;4.32;;;0.90;;
82938;SDS011;72714;52.744;4.900;2023-10-31T08:34:23;4.07;;;1.13;;
82938;SDS011;72714;52.744;4.900;2023-10-31T08:36:49;3.50;;;1.00;;
82938;SDS011;72714;52.744;4.900;2023-10-31T08:39:15;4.95;;;1.02;;
82938;SDS011;72714;52.744;4.900;2023-10-31T08:41:50;4.53;;;1.00;;
82938;SDS011;72714;52.744;4.900;2023-10-31T08:44:16;4.93;;;0.90;;
82938;SDS011;72714;52.744;4.900;2023-10-31T08:46:42;5.00;;;0.80;;
82938;SDS011;72714;52.744;4.900;2023-10-31T08:49:07;4.30;;;1.03;;
82938;SDS011;72714;52.744;4.900;2023-10-31T08:51:33;5.13;;;1.00;;
82938;SDS011;72714;52.744;4.900;2023-10-31T08:53:59;3.67;;;0.93;;
82938;SDS011;72714;52.744;4.900;2023-10-31T08:56:24;5.47;;;1.00;;
82938;SDS011;72714;52.744;4.900;2023-10-31T08:58:52;6.70;;;1.70;;
82938;SDS011;72714;52.744;4.900;2023-10-31T09:01:18;6.78;;;1.30;;
82938;SDS011;72714;52.744;4.900;2023-10-31T09:03:44;5.60;;;1.10;;
82938;SDS011;72714;52.744;4.900;2023-10-31T09:06:09;4.43;;;0.90;;
82938;SDS011;72714;52.744;4.900;2023-10-31T09:08:35;5.93;;;0.93;;
82938;SDS011;72714;52.744;4.900;2023-10-31T09:11:02;5.67;;;0.90;;
82938;SDS011;72714;52.744;4.900;2023-10-31T09:13:28;4.55;;;0.90;;
82938;SDS011;72714;52.744;4.900;2023-10-31T09:15:57;3.58;;;0.90;;
82938;SDS011;72714;52.744;4.900;2023-10-31T09:18:23;3.27;;;0.80;;
82938;SDS011;72714;52.744;4.900;2023-10-31T09:20:49;3.05;;;0.90;;
82938;SDS011;72714;52.744;4.900;2023-10-31T09:23:15;4.40;;;0.80;;
82938;SDS011;72714;52.744;4.900;2023-10-31T09:25:42;3.20;;;0.90;;
82938;SDS011;72714;52.744;4.900;2023-10-31T09:28:10;4.00;;;0.90;;
82938;SDS011;72714;52.744;4.900;2023-10-31T09:30:36;2.97;;;0.63;;
82938;SDS011;72714;52.744;4.900;2023-10-31T09:33:01;4.00;;;0.70;;
82938;SDS011;72714;52.744;4.900;2023-10-31T09:35:27;2.77;;;0.63;;
82938;SDS011;72714;52.744;4.900;2023-10-31T09:37:53;2.83;;;0.73;;
82938;SDS011;72714;52.744;4.900;2023-10-31T09:40:19;3.13;;;0.70;;
82938;SDS011;72714;52.744;4.900;2023-10-31T09:42:45;4.30;;;0.90;;
82938;SDS011;72714;52.744;4.900;2023-10-31T09:45:14;3.17;;;0.70;;
82938;SDS011;72714;52.744;4.900;2023-10-31T09:47:40;3.80;;;0.70;;
82938;SDS011;72714;52.744;4.900;2023-10-31T09:50:07;2.05;;;0.60;;
82938;SDS011;72714;52.744;4.900;2023-10-31T09:52:35;2.27;;;0.60;;
82938;SDS011;72714;52.744;4.900;2023-10-31T09:55:02;4.70;;;0.80;;
82938;SDS011;72714;52.744;4.900;2023-10-31T09:57:29;4.30;;;0.80;;
82938;SDS011;72714;52.744;4.900;2023-10-31T09:59:54;4.28;;;0.70;;
82938;SDS011;72714;52.744;4.900;2023-10-31T10:02:20;3.67;;;0.70;;
82938;SDS011;72714;52.744;4.900;2023-10-31T10:04:45;4.10;;;0.68;;
82938;SDS011;72714;52.744;4.900;2023-10-31T10:07:17;3.13;;;0.70;;
82938;SDS011;72714;52.744;4.900;2023-10-31T10:09:44;6.80;;;0.93;;
82938;SDS011;72714;52.744;4.900;2023-10-31T10:12:13;1.60;;;0.50;;
82938;SDS011;72714;52.744;4.900;2023-10-31T10:14:39;3.22;;;0.70;;
82938;SDS011;72714;52.744;4.900;2023-10-31T10:17:15;2.85;;;0.60;;
82938;SDS011;72714;52.744;4.900;2023-10-31T10:19:41;3.05;;;0.70;;
82938;SDS011;72714;52.744;4.900;2023-10-31T10:22:06;3.70;;;0.70;;
82938;SDS011;72714;52.744;4.900;2023-10-31T10:24:32;2.47;;;0.70;;
82938;SDS011;72714;52.744;4.900;2023-10-31T10:26:57;4.43;;;0.73;;
82938;SDS011;72714;52.744;4.900;2023-10-31T10:29:23;3.30;;;0.77;;
82938;SDS011;72714;52.744;4.900;2023-10-31T10:31:50;2.93;;;0.60;;
82938;SDS011;72714;52.744;4.900;2023-10-31T10:34:15;4.57;;;1.00;;
82938;SDS011;72714;52.744;4.900;2023-10-31T10:36:41;3.50;;;0.90;;
82938;SDS011;72714;52.744;4.900;2023-10-31T10:39:20;3.55;;;0.80;;
82938;SDS011;72714;52.744;4.900;2023-10-31T10:41:49;3.42;;;0.70;;
82938;SDS011;72714;52.744;4.900;2023-10-31T10:44:19;2.33;;;0.70;;
82938;SDS011;72714;52.744;4.900;2023-10-31T10:46:44;2.90;;;0.60;;
82938;SDS011;72714;52.744;4.900;2023-10-31T10:49:15;2.72;;;0.60;;
82938;SDS011;72714;52.744;4.900;2023-10-31T10:51:57;4.30;;;0.80;;
82938;SDS011;72714;52.744;4.900;2023-10-31T10:57:14;4.45;;;0.80;;
82938;SDS011;72714;52.744;4.900;2023-10-31T10:59:47;2.90;;;0.75;;
82938;SDS011;72714;52.744;4.900;2023-10-31T11:02:18;2.30;;;0.70;;
82938;SDS011;72714;52.744;4.900;2023-10-31T11:04:43;2.70;;;0.63;;
82938;SDS011;72714;52.744;4.900;2023-10-31T11:07:09;2.27;;;0.60;;
82938;SDS011;72714;52.744;4.900;2023-10-31T11:09:39;2.85;;;0.70;;
82938;SDS011;72714;52.744;4.900;2023-10-31T11:12:08;3.50;;;0.80;;
82938;SDS011;72714;52.744;4.900;2023-10-31T11:14:35;2.55;;;0.80;;
82938;SDS011;72714;52.744;4.900;2023-10-31T11:17:02;2.57;;;0.70;;
82938;SDS011;72714;52.744;4.900;2023-10-31T11:19:33;3.20;;;0.80;;
82938;SDS011;72714;52.744;4.900;2023-10-31T11:22:00;4.72;;;1.10;;
82938;SDS011;72714;52.744;4.900;2023-10-31T11:24:47;3.63;;;0.90;;
82938;SDS011;72714;52.744;4.900;2023-10-31T11:27:13;3.55;;;0.65;;
82938;SDS011;72714;52.744;4.900;2023-10-31T11:29:38;2.83;;;0.70;;
82938;SDS011;72714;52.744;4.900;2023-10-31T11:32:08;3.67;;;0.60;;
82938;SDS011;72714;52.744;4.900;2023-10-31T11:34:34;2.92;;;0.70;;
82938;SDS011;72714;52.744;4.900;2023-10-31T11:42:38;2.58;;;0.70;;
82938;SDS011;72714;52.744;4.900;2023-10-31T11:45:07;2.03;;;0.60;;
82938;SDS011;72714;52.744;4.900;2023-10-31T11:50:14;2.13;;;0.70;;
82938;SDS011;72714;52.744;4.900;2023-10-31T11:52:40;3.17;;;0.70;;
82938;SDS011;72714;52.744;4.900;2023-10-31T11:55:12;3.17;;;0.70;;
82938;SDS011;72714;52.744;4.900;2023-10-31T11:57:38;3.88;;;0.70;;
82938;SDS011;72714;52.744;4.900;2023-10-31T12:00:05;4.38;;;0.88;;
82938;SDS011;72714;52.744;4.900;2023-10-31T12:02:37;3.90;;;0.82;;
82938;SDS011;72714;52.744;4.900;2023-10-31T12:05:09;2.53;;;0.60;;
82938;SDS011;72714;52.744;4.900;2023-10-31T12:07:42;2.42;;;0.57;;
82938;SDS011;72714;52.744;4.900;2023-10-31T12:10:08;4.07;;;0.70;;
82938;SDS011;72714;52.744;4.900;2023-10-31T12:12:35;2.53;;;0.60;;
82938;SDS011;72714;52.744;4.900;2023-10-31T12:15:07;2.93;;;0.57;;
82938;SDS011;72714;52.744;4.900;2023-10-31T12:17:33;1.75;;;0.57;;
82938;SDS011;72714;52.744;4.900;2023-10-31T12:20:08;1.60;;;0.50;;
82938;SDS011;72714;52.744;4.900;2023-10-31T12:22:34;1.63;;;0.60;;
82938;SDS011;72714;52.744;4.900;2023-10-31T12:25:04;1.80;;;0.55;;
82938;SDS011;72714;52.744;4.900;2023-10-31T12:27:43;3.17;;;0.60;;
82938;SDS011;72714;52.744;4.900;2023-10-31T12:30:16;1.67;;;0.52;;
82938;SDS011;72714;52.744;4.900;2023-10-31T12:32:42;2.37;;;0.60;;
82938;SDS011;72714;52.744;4.900;2023-10-31T12:35:09;2.88;;;0.60;;
82938;SDS011;72714;52.744;4.900;2023-10-31T12:37:41;1.77;;;0.52;;
82938;SDS011;72714;52.744;4.900;2023-10-31T12:40:10;2.15;;;0.77;;
82938;SDS011;72714;52.744;4.900;2023-10-31T12:42:36;2.67;;;0.60;;
82938;SDS011;72714;52.744;4.900;2023-10-31T12:45:02;3.25;;;0.70;;
82938;SDS011;72714;52.744;4.900;2023-10-31T12:47:28;2.53;;;0.60;;
82938;SDS011;72714;52.744;4.900;2023-10-31T12:50:11;1.70;;;0.60;;
82938;SDS011;72714;52.744;4.900;2023-10-31T12:52:48;3.50;;;0.65;;
82938;SDS011;72714;52.744;4.900;2023-10-31T12:55:15;2.08;;;0.70;;
82938;SDS011;72714;52.744;4.900;2023-10-31T12:57:41;2.53;;;0.68;;
82938;SDS011;72714;52.744;4.900;2023-10-31T13:00:07;3.40;;;0.90;;
82938;SDS011;72714;52.744;4.900;2023-10-31T13:02:36;2.72;;;0.60;;
82938;SDS011;72714;52.744;4.900;2023-10-31T13:05:14;2.78;;;0.80;;
82938;SDS011;72714;52.744;4.900;2023-10-31T13:07:50;2.17;;;0.73;;
82938;SDS011;72714;52.744;4.900;2023-10-31T13:10:18;3.63;;;0.80;;
82938;SDS011;72714;52.744;4.900;2023-10-31T13:12:44;3.57;;;0.70;;
82938;SDS011;72714;52.744;4.900;2023-10-31T13:15:12;2.00;;;0.60;;
82938;SDS011;72714;52.744;4.900;2023-10-31T13:17:38;2.97;;;0.90;;
82938;SDS011;72714;52.744;4.900;2023-10-31T13:20:06;3.35;;;0.77;;
82938;SDS011;72714;52.744;4.900;2023-10-31T13:22:34;3.37;;;0.90;;
82938;SDS011;72714;52.744;4.900;2023-10-31T13:25:01;3.08;;;0.77;;
82938;SDS011;72714;52.744;4.900;2023-10-31T13:27:30;2.90;;;0.67;;
82938;SDS011;72714;52.744;4.900;2023-10-31T13:29:56;2.40;;;0.70;;
82938;SDS011;72714;52.744;4.900;2023-10-31T13:32:21;2.93;;;0.70;;
82938;SDS011;72714;52.744;4.900;2023-10-31T13:34:47;2.78;;;0.70;;
82938;SDS011;72714;52.744;4.900;2023-10-31T13:37:13;2.33;;;0.63;;
82938;SDS011;72714;52.744;4.900;2023-10-31T13:39:38;1.80;;;0.53;;
82938;SDS011;72714;52.744;4.900;2023-10-31T13:42:04;2.57;;;0.80;;
82938;SDS011;72714;52.744;4.900;2023-10-31T13:44:30;2.80;;;0.80;;
82938;SDS011;72714;52.744;4.900;2023-10-31T13:46:55;3.47;;;0.80;;
82938;SDS011;72714;52.744;4.900;2023-10-31T13:49:21;3.38;;;0.80;;
82938;SDS011;72714;52.744;4.900;2023-10-31T13:51:47;3.90;;;0.80;;
82938;SDS011;72714;52.744;4.900;2023-10-31T13:54:14;2.40;;;0.70;;
82938;SDS011;72714;52.744;4.900;2023-10-31T13:56:39;2.65;;;0.77;;
82938;SDS011;72714;52.744;4.900;2023-10-31T13:59:05;3.87;;;0.90;;
82938;SDS011;72714;52.744;4.900;2023-10-31T14:01:30;3.13;;;0.90;;
82938;SDS011;72714;52.744;4.900;2023-10-31T14:03:56;3.90;;;1.00;;
82938;SDS011;72714;52.744;4.900;2023-10-31T14:06:21;2.92;;;0.63;;
82938;SDS011;72714;52.744;4.900;2023-10-31T14:08:47;2.97;;;0.60;;
82938;SDS011;72714;52.744;4.900;2023-10-31T14:11:12;2.13;;;0.70;;
82938;SDS011;72714;52.744;4.900;2023-10-31T14:13:38;2.93;;;0.90;;
82938;SDS011;72714;52.744;4.900;2023-10-31T14:16:03;3.58;;;0.85;;
82938;SDS011;72714;52.744;4.900;2023-10-31T14:18:29;4.30;;;1.00;;
82938;SDS011;72714;52.744;4.900;2023-10-31T14:20:56;2.55;;;1.10;;
82938;SDS011;72714;52.744;4.900;2023-10-31T14:23:21;2.53;;;0.80;;
82938;SDS011;72714;52.744;4.900;2023-10-31T14:25:47;3.13;;;0.90;;
82938;SDS011;72714;52.744;4.900;2023-10-31T14:28:12;2.95;;;0.98;;
82938;SDS011;72714;52.744;4.900;2023-10-31T14:30:38;3.33;;;0.83;;
82938;SDS011;72714;52.744;4.900;2023-10-31T14:33:03;4.30;;;0.90;;
82938;SDS011;72714;52.744;4.900;2023-10-31T14:35:29;2.78;;;0.88;;
82938;SDS011;72714;52.744;4.900;2023-10-31T14:37:54;3.30;;;0.90;;
82938;SDS011;72714;52.744;4.900;2023-10-31T14:40:20;3.17;;;0.90;;
82938;SDS011;72714;52.744;4.900;2023-10-31T14:42:46;3.05;;;0.80;;
82938;SDS011;72714;52.744;4.900;2023-10-31T14:45:11;2.67;;;0.90;;
82938;SDS011;72714;52.744;4.900;2023-10-31T14:47:37;3.90;;;1.00;;
82938;SDS011;72714;52.744;4.900;2023-10-31T14:50:02;4.88;;;0.80;;
82938;SDS011;72714;52.744;4.900;2023-10-31T14:52:28;3.53;;;0.85;;
82938;SDS011;72714;52.744;4.900;2023-10-31T14:54:53;2.60;;;0.70;;